sensor_id;sensor_type;location;lat;lon;timestamp;P1;durP1;ratioP1;P2;durP2;ratioP2
55330;SDS011;58851;42.984;20.336;2023-01-13T00:02:26;81.80;;;46.20;;
55330;SDS011;58851;42.984;20.336;2023-01-13T00:04:51;75.43;;;44.50;;
55330;SDS011;58851;42.984;20.336;2023-01-13T00:07:17;81.90;;;49.38;;
55330;SDS011;58851;42.984;20.336;2023-01-13T00:09:43;91.93;;;59.72;;
55330;SDS011;58851;42.984;20.336;2023-01-13T00:12:08;101.32;;;61.47;;
55330;SDS011;58851;42.984;20.336;2023-01-13T00:14:35;110.80;;;62.95;;
55330;SDS011;58851;42.984;20.336;2023-01-13T00:17:01;101.90;;;59.85;;
55330;SDS011;58851;42.984;20.336;2023-01-13T00:19:28;74.05;;;46.88;;
55330;SDS011;58851;42.984;20.336;2023-01-13T00:21:53;99.82;;;59.03;;
55330;SDS011;58851;42.984;20.336;2023-01-13T00:24:19;115.97;;;67.55;;
55330;SDS011;58851;42.984;20.336;2023-01-13T00:26:45;84.93;;;50.33;;
55330;SDS011;58851;42.984;20.336;2023-01-13T00:29:11;64.90;;;39.30;;
55330;SDS011;58851;42.984;20.336;2023-01-13T00:31:37;45.28;;;30.85;;
55330;SDS011;58851;42.984;20.336;2023-01-13T00:34:03;55.15;;;32.33;;
55330;SDS011;58851;42.984;20.336;2023-01-13T00:36:29;54.45;;;33.50;;
55330;SDS011;58851;42.984;20.336;2023-01-13T00:38:55;55.15;;;34.05;;
55330;SDS011;58851;42.984;20.336;2023-01-13T00:41:22;59.88;;;37.50;;
55330;SDS011;58851;42.984;20.336;2023-01-13T00:43:49;54.60;;;33.60;;
55330;SDS011;58851;42.984;20.336;2023-01-13T00:46:16;49.90;;;32.65;;
55330;SDS011;58851;42.984;20.336;2023-01-13T00:48:44;55.80;;;36.03;;
55330;SDS011;58851;42.984;20.336;2023-01-13T00:51:12;91.00;;;51.35;;
55330;SDS011;58851;42.984;20.336;2023-01-13T00:53:40;115.85;;;63.92;;
55330;SDS011;58851;42.984;20.336;2023-01-13T00:56:10;88.80;;;51.22;;
55330;SDS011;58851;42.984;20.336;2023-01-13T00:58:42;78.82;;;47.88;;
55330;SDS011;58851;42.984;20.336;2023-01-13T01:01:12;97.82;;;55.30;;
55330;SDS011;58851;42.984;20.336;2023-01-13T01:03:40;87.30;;;50.80;;
55330;SDS011;58851;42.984;20.336;2023-01-13T01:06:14;86.53;;;52.42;;
55330;SDS011;58851;42.984;20.336;2023-01-13T01:08:42;71.85;;;44.45;;
55330;SDS011;58851;42.984;20.336;2023-01-13T01:11:09;85.00;;;53.47;;
55330;SDS011;58851;42.984;20.336;2023-01-13T01:13:37;84.13;;;49.10;;
55330;SDS011;58851;42.984;20.336;2023-01-13T01:16:04;77.25;;;47.13;;
55330;SDS011;58851;42.984;20.336;2023-01-13T01:18:35;84.43;;;50.08;;
55330;SDS011;58851;42.984;20.336;2023-01-13T01:21:02;97.03;;;58.05;;
55330;SDS011;58851;42.984;20.336;2023-01-13T01:23:29;129.73;;;73.15;;
55330;SDS011;58851;42.984;20.336;2023-01-13T01:26:11;111.22;;;62.92;;
55330;SDS011;58851;42.984;20.336;2023-01-13T01:28:41;93.63;;;53.13;;
55330;SDS011;58851;42.984;20.336;2023-01-13T01:31:09;101.35;;;62.55;;
55330;SDS011;58851;42.984;20.336;2023-01-13T01:33:38;96.68;;;58.38;;
55330;SDS011;58851;42.984;20.336;2023-01-13T01:36:05;111.28;;;65.53;;
55330;SDS011;58851;42.984;20.336;2023-01-13T01:38:32;110.55;;;63.70;;
55330;SDS011;58851;42.984;20.336;2023-01-13T01:40:57;105.65;;;64.38;;
55330;SDS011;58851;42.984;20.336;2023-01-13T01:43:42;109.03;;;65.57;;
55330;SDS011;58851;42.984;20.336;2023-01-13T01:46:32;102.55;;;62.85;;
55330;SDS011;58851;42.984;20.336;2023-01-13T01:56:59;86.22;;;51.22;;
55330;SDS011;58851;42.984;20.336;2023-01-13T01:59:25;86.45;;;54.03;;
55330;SDS011;58851;42.984;20.336;2023-01-13T02:01:55;90.75;;;53.33;;
55330;SDS011;58851;42.984;20.336;2023-01-13T02:04:25;672.22;;;409.17;;
55330;SDS011;58851;42.984;20.336;2023-01-13T02:06:54;405.20;;;227.27;;
55330;SDS011;58851;42.984;20.336;2023-01-13T02:09:21;192.93;;;114.55;;
55330;SDS011;58851;42.984;20.336;2023-01-13T02:11:48;139.77;;;83.15;;
55330;SDS011;58851;42.984;20.336;2023-01-13T02:14:32;109.95;;;69.63;;
55330;SDS011;58851;42.984;20.336;2023-01-13T02:27:39;95.88;;;62.08;;
55330;SDS011;58851;42.984;20.336;2023-01-13T02:33:32;106.35;;;67.80;;
55330;SDS011;58851;42.984;20.336;2023-01-13T02:36:09;112.13;;;68.43;;
55330;SDS011;58851;42.984;20.336;2023-01-13T02:38:37;128.82;;;76.63;;
55330;SDS011;58851;42.984;20.336;2023-01-13T02:41:17;98.70;;;62.00;;
55330;SDS011;58851;42.984;20.336;2023-01-13T02:44:08;76.35;;;45.30;;
55330;SDS011;58851;42.984;20.336;2023-01-13T02:46:53;82.60;;;52.55;;
55330;SDS011;58851;42.984;20.336;2023-01-13T02:49:36;94.35;;;57.58;;
55330;SDS011;58851;42.984;20.336;2023-01-13T02:52:30;91.18;;;53.90;;
55330;SDS011;58851;42.984;20.336;2023-01-13T02:55:14;87.75;;;52.60;;
55330;SDS011;58851;42.984;20.336;2023-01-13T02:57:43;80.28;;;50.50;;
55330;SDS011;58851;42.984;20.336;2023-01-13T03:00:12;93.78;;;56.13;;
55330;SDS011;58851;42.984;20.336;2023-01-13T03:02:40;88.45;;;54.40;;
55330;SDS011;58851;42.984;20.336;2023-01-13T03:05:06;91.00;;;57.17;;
55330;SDS011;58851;42.984;20.336;2023-01-13T03:24:53;92.97;;;57.80;;
55330;SDS011;58851;42.984;20.336;2023-01-13T03:29:59;111.50;;;66.82;;
55330;SDS011;58851;42.984;20.336;2023-01-13T03:32:32;116.72;;;70.28;;
55330;SDS011;58851;42.984;20.336;2023-01-13T03:35:18;104.63;;;63.00;;
55330;SDS011;58851;42.984;20.336;2023-01-13T03:37:53;104.57;;;69.20;;
55330;SDS011;58851;42.984;20.336;2023-01-13T03:40:26;96.07;;;58.58;;
55330;SDS011;58851;42.984;20.336;2023-01-13T03:43:02;94.47;;;56.63;;
55330;SDS011;58851;42.984;20.336;2023-01-13T03:45:53;96.75;;;58.67;;
55330;SDS011;58851;42.984;20.336;2023-01-13T03:48:23;99.43;;;64.43;;
55330;SDS011;58851;42.984;20.336;2023-01-13T03:50:52;90.82;;;59.35;;
55330;SDS011;58851;42.984;20.336;2023-01-13T03:53:34;94.85;;;65.18;;
55330;SDS011;58851;42.984;20.336;2023-01-13T03:56:12;97.22;;;58.67;;
55330;SDS011;58851;42.984;20.336;2023-01-13T03:58:53;105.10;;;63.97;;
55330;SDS011;58851;42.984;20.336;2023-01-13T04:01:22;169.02;;;93.50;;
55330;SDS011;58851;42.984;20.336;2023-01-13T04:09:02;287.17;;;151.68;;
55330;SDS011;58851;42.984;20.336;2023-01-13T04:11:44;275.25;;;141.35;;
55330;SDS011;58851;42.984;20.336;2023-01-13T04:14:15;246.02;;;130.45;;
55330;SDS011;58851;42.984;20.336;2023-01-13T04:16:44;203.48;;;113.15;;
55330;SDS011;58851;42.984;20.336;2023-01-13T04:19:11;192.45;;;108.82;;
55330;SDS011;58851;42.984;20.336;2023-01-13T04:21:37;183.90;;;112.53;;
55330;SDS011;58851;42.984;20.336;2023-01-13T04:24:03;132.50;;;86.00;;
55330;SDS011;58851;42.984;20.336;2023-01-13T04:26:29;96.80;;;64.63;;
55330;SDS011;58851;42.984;20.336;2023-01-13T04:28:56;99.43;;;62.17;;
55330;SDS011;58851;42.984;20.336;2023-01-13T04:31:21;113.95;;;72.25;;
55330;SDS011;58851;42.984;20.336;2023-01-13T04:33:47;108.97;;;66.93;;
55330;SDS011;58851;42.984;20.336;2023-01-13T04:36:13;165.65;;;102.28;;
55330;SDS011;58851;42.984;20.336;2023-01-13T04:38:39;233.48;;;127.75;;
55330;SDS011;58851;42.984;20.336;2023-01-13T04:41:05;235.82;;;131.02;;
55330;SDS011;58851;42.984;20.336;2023-01-13T04:43:31;240.50;;;129.00;;
55330;SDS011;58851;42.984;20.336;2023-01-13T04:45:56;229.15;;;129.38;;
55330;SDS011;58851;42.984;20.336;2023-01-13T04:48:22;198.55;;;113.38;;
55330;SDS011;58851;42.984;20.336;2023-01-13T04:50:48;221.98;;;128.55;;
55330;SDS011;58851;42.984;20.336;2023-01-13T04:53:14;218.05;;;119.40;;
55330;SDS011;58851;42.984;20.336;2023-01-13T04:55:39;126.40;;;73.53;;
55330;SDS011;58851;42.984;20.336;2023-01-13T04:58:06;122.85;;;70.28;;
55330;SDS011;58851;42.984;20.336;2023-01-13T05:00:34;153.52;;;84.65;;
55330;SDS011;58851;42.984;20.336;2023-01-13T05:03:00;166.52;;;91.85;;
55330;SDS011;58851;42.984;20.336;2023-01-13T05:05:27;142.85;;;84.57;;
55330;SDS011;58851;42.984;20.336;2023-01-13T05:07:54;128.82;;;76.03;;
55330;SDS011;58851;42.984;20.336;2023-01-13T05:10:20;119.03;;;66.30;;
55330;SDS011;58851;42.984;20.336;2023-01-13T05:12:45;102.70;;;61.88;;
55330;SDS011;58851;42.984;20.336;2023-01-13T05:15:30;103.55;;;64.28;;
55330;SDS011;58851;42.984;20.336;2023-01-13T05:18:14;100.53;;;63.03;;
55330;SDS011;58851;42.984;20.336;2023-01-13T05:20:41;113.13;;;65.22;;
55330;SDS011;58851;42.984;20.336;2023-01-13T05:23:07;107.15;;;64.30;;
55330;SDS011;58851;42.984;20.336;2023-01-13T05:25:51;106.50;;;67.30;;
55330;SDS011;58851;42.984;20.336;2023-01-13T05:28:17;102.55;;;63.20;;
55330;SDS011;58851;42.984;20.336;2023-01-13T05:30:44;107.72;;;63.38;;
55330;SDS011;58851;42.984;20.336;2023-01-13T05:33:14;92.93;;;59.70;;
55330;SDS011;58851;42.984;20.336;2023-01-13T05:35:43;98.93;;;62.97;;
55330;SDS011;58851;42.984;20.336;2023-01-13T05:38:10;104.53;;;65.63;;
55330;SDS011;58851;42.984;20.336;2023-01-13T05:40:37;113.88;;;68.45;;
55330;SDS011;58851;42.984;20.336;2023-01-13T05:43:22;117.70;;;69.28;;
55330;SDS011;58851;42.984;20.336;2023-01-13T05:48:18;123.95;;;72.28;;
55330;SDS011;58851;42.984;20.336;2023-01-13T05:50:45;115.35;;;72.65;;
55330;SDS011;58851;42.984;20.336;2023-01-13T05:53:15;120.35;;;70.30;;
55330;SDS011;58851;42.984;20.336;2023-01-13T05:55:42;116.43;;;71.30;;
55330;SDS011;58851;42.984;20.336;2023-01-13T05:58:08;134.85;;;81.72;;
55330;SDS011;58851;42.984;20.336;2023-01-13T06:00:35;135.10;;;82.85;;
55330;SDS011;58851;42.984;20.336;2023-01-13T06:03:02;137.70;;;84.72;;
55330;SDS011;58851;42.984;20.336;2023-01-13T06:05:29;166.75;;;101.00;;
55330;SDS011;58851;42.984;20.336;2023-01-13T06:07:56;199.80;;;110.35;;
55330;SDS011;58851;42.984;20.336;2023-01-13T06:10:25;156.77;;;91.75;;
55330;SDS011;58851;42.984;20.336;2023-01-13T06:12:51;134.93;;;83.03;;
55330;SDS011;58851;42.984;20.336;2023-01-13T06:15:17;123.25;;;73.20;;
55330;SDS011;58851;42.984;20.336;2023-01-13T06:17:43;114.93;;;67.28;;
55330;SDS011;58851;42.984;20.336;2023-01-13T06:20:10;138.20;;;83.85;;
55330;SDS011;58851;42.984;20.336;2023-01-13T06:22:38;171.15;;;102.43;;
55330;SDS011;58851;42.984;20.336;2023-01-13T06:25:10;173.30;;;101.95;;
55330;SDS011;58851;42.984;20.336;2023-01-13T06:27:50;183.02;;;111.60;;
55330;SDS011;58851;42.984;20.336;2023-01-13T06:30:18;173.43;;;105.70;;
55330;SDS011;58851;42.984;20.336;2023-01-13T06:32:44;144.13;;;87.10;;
55330;SDS011;58851;42.984;20.336;2023-01-13T06:35:14;148.52;;;82.10;;
55330;SDS011;58851;42.984;20.336;2023-01-13T06:37:44;156.25;;;84.03;;
55330;SDS011;58851;42.984;20.336;2023-01-13T06:40:16;194.25;;;102.20;;
55330;SDS011;58851;42.984;20.336;2023-01-13T06:42:42;205.45;;;111.55;;
55330;SDS011;58851;42.984;20.336;2023-01-13T06:45:27;146.50;;;82.18;;
55330;SDS011;58851;42.984;20.336;2023-01-13T06:47:55;120.57;;;70.03;;
55330;SDS011;58851;42.984;20.336;2023-01-13T06:50:23;123.88;;;72.40;;
55330;SDS011;58851;42.984;20.336;2023-01-13T06:52:49;116.72;;;70.63;;
55330;SDS011;58851;42.984;20.336;2023-01-13T06:55:15;135.07;;;76.63;;
55330;SDS011;58851;42.984;20.336;2023-01-13T06:57:53;142.55;;;83.97;;
55330;SDS011;58851;42.984;20.336;2023-01-13T07:00:21;138.88;;;84.03;;
55330;SDS011;58851;42.984;20.336;2023-01-13T07:02:48;131.57;;;78.05;;
55330;SDS011;58851;42.984;20.336;2023-01-13T07:05:15;138.15;;;85.93;;
55330;SDS011;58851;42.984;20.336;2023-01-13T07:07:42;133.35;;;83.78;;
55330;SDS011;58851;42.984;20.336;2023-01-13T07:10:09;261.42;;;142.48;;
55330;SDS011;58851;42.984;20.336;2023-01-13T07:12:37;169.93;;;99.30;;
55330;SDS011;58851;42.984;20.336;2023-01-13T07:15:23;172.75;;;104.05;;
55330;SDS011;58851;42.984;20.336;2023-01-13T07:17:49;171.18;;;101.82;;
55330;SDS011;58851;42.984;20.336;2023-01-13T07:20:15;149.25;;;90.32;;
55330;SDS011;58851;42.984;20.336;2023-01-13T07:22:41;181.95;;;105.40;;
55330;SDS011;58851;42.984;20.336;2023-01-13T07:25:07;240.27;;;137.55;;
55330;SDS011;58851;42.984;20.336;2023-01-13T07:27:33;262.73;;;154.00;;
55330;SDS011;58851;42.984;20.336;2023-01-13T07:29:59;217.30;;;139.50;;
55330;SDS011;58851;42.984;20.336;2023-01-13T07:32:25;150.57;;;92.15;;
55330;SDS011;58851;42.984;20.336;2023-01-13T07:34:51;145.45;;;92.40;;
55330;SDS011;58851;42.984;20.336;2023-01-13T07:37:16;168.90;;;104.82;;
55330;SDS011;58851;42.984;20.336;2023-01-13T07:39:42;166.90;;;107.05;;
55330;SDS011;58851;42.984;20.336;2023-01-13T07:42:09;147.65;;;90.50;;
55330;SDS011;58851;42.984;20.336;2023-01-13T07:44:53;119.03;;;75.78;;
55330;SDS011;58851;42.984;20.336;2023-01-13T07:47:19;113.90;;;66.75;;
55330;SDS011;58851;42.984;20.336;2023-01-13T07:49:47;89.90;;;54.60;;
55330;SDS011;58851;42.984;20.336;2023-01-13T07:52:13;100.10;;;49.25;;
55330;SDS011;58851;42.984;20.336;2023-01-13T07:54:39;87.55;;;46.72;;
55330;SDS011;58851;42.984;20.336;2023-01-13T07:57:05;93.35;;;48.10;;
55330;SDS011;58851;42.984;20.336;2023-01-13T07:59:30;73.47;;;43.03;;
55330;SDS011;58851;42.984;20.336;2023-01-13T08:01:56;108.70;;;57.00;;
55330;SDS011;58851;42.984;20.336;2023-01-13T08:04:22;93.10;;;45.30;;
55330;SDS011;58851;42.984;20.336;2023-01-13T08:06:47;76.97;;;40.60;;
55330;SDS011;58851;42.984;20.336;2023-01-13T08:09:13;84.30;;;43.83;;
55330;SDS011;58851;42.984;20.336;2023-01-13T08:11:39;95.72;;;45.03;;
55330;SDS011;58851;42.984;20.336;2023-01-13T08:14:05;83.90;;;44.63;;
55330;SDS011;58851;42.984;20.336;2023-01-13T08:16:31;116.82;;;50.30;;
55330;SDS011;58851;42.984;20.336;2023-01-13T08:18:58;151.05;;;66.22;;
55330;SDS011;58851;42.984;20.336;2023-01-13T08:21:24;107.55;;;55.00;;
55330;SDS011;58851;42.984;20.336;2023-01-13T08:23:49;137.65;;;60.80;;
55330;SDS011;58851;42.984;20.336;2023-01-13T08:26:16;125.60;;;64.57;;
55330;SDS011;58851;42.984;20.336;2023-01-13T08:28:43;132.88;;;64.57;;
55330;SDS011;58851;42.984;20.336;2023-01-13T08:31:10;110.68;;;62.22;;
55330;SDS011;58851;42.984;20.336;2023-01-13T08:33:37;127.70;;;70.60;;
55330;SDS011;58851;42.984;20.336;2023-01-13T08:36:04;132.13;;;71.25;;
55330;SDS011;58851;42.984;20.336;2023-01-13T08:38:32;134.13;;;70.10;;
55330;SDS011;58851;42.984;20.336;2023-01-13T08:40:58;129.27;;;68.35;;
55330;SDS011;58851;42.984;20.336;2023-01-13T08:43:24;131.80;;;73.38;;
55330;SDS011;58851;42.984;20.336;2023-01-13T08:45:56;132.43;;;75.13;;
55330;SDS011;58851;42.984;20.336;2023-01-13T08:48:24;154.80;;;87.97;;
55330;SDS011;58851;42.984;20.336;2023-01-13T08:50:51;156.18;;;85.85;;
55330;SDS011;58851;42.984;20.336;2023-01-13T08:53:17;157.73;;;82.40;;
55330;SDS011;58851;42.984;20.336;2023-01-13T08:55:44;159.40;;;83.82;;
55330;SDS011;58851;42.984;20.336;2023-01-13T08:58:10;155.68;;;91.25;;
55330;SDS011;58851;42.984;20.336;2023-01-13T09:00:36;145.63;;;79.53;;
55330;SDS011;58851;42.984;20.336;2023-01-13T09:03:02;144.57;;;82.25;;
55330;SDS011;58851;42.984;20.336;2023-01-13T09:05:29;176.13;;;107.43;;
55330;SDS011;58851;42.984;20.336;2023-01-13T09:07:55;139.50;;;79.68;;
55330;SDS011;58851;42.984;20.336;2023-01-13T09:10:20;122.05;;;65.22;;
55330;SDS011;58851;42.984;20.336;2023-01-13T09:12:46;119.53;;;70.45;;
55330;SDS011;58851;42.984;20.336;2023-01-13T09:15:30;141.43;;;79.03;;
55330;SDS011;58851;42.984;20.336;2023-01-13T09:17:56;170.40;;;95.60;;
55330;SDS011;58851;42.984;20.336;2023-01-13T09:20:22;179.43;;;99.90;;
55330;SDS011;58851;42.984;20.336;2023-01-13T09:22:48;152.18;;;86.15;;
55330;SDS011;58851;42.984;20.336;2023-01-13T09:25:13;163.48;;;88.03;;
55330;SDS011;58851;42.984;20.336;2023-01-13T09:27:39;160.65;;;88.78;;
55330;SDS011;58851;42.984;20.336;2023-01-13T09:30:05;163.32;;;89.05;;
55330;SDS011;58851;42.984;20.336;2023-01-13T09:32:31;179.63;;;94.28;;
55330;SDS011;58851;42.984;20.336;2023-01-13T09:34:57;173.43;;;92.88;;
55330;SDS011;58851;42.984;20.336;2023-01-13T09:37:26;177.75;;;104.70;;
55330;SDS011;58851;42.984;20.336;2023-01-13T09:39:52;171.05;;;103.43;;
55330;SDS011;58851;42.984;20.336;2023-01-13T09:46:01;154.57;;;91.10;;
55330;SDS011;58851;42.984;20.336;2023-01-13T09:53:52;168.68;;;100.95;;
55330;SDS011;58851;42.984;20.336;2023-01-13T09:56:15;193.65;;;114.68;;
55330;SDS011;58851;42.984;20.336;2023-01-13T09:58:41;201.02;;;111.97;;
55330;SDS011;58851;42.984;20.336;2023-01-13T10:04:03;171.60;;;105.85;;
55330;SDS011;58851;42.984;20.336;2023-01-13T10:06:36;133.45;;;81.55;;
55330;SDS011;58851;42.984;20.336;2023-01-13T10:09:08;109.95;;;69.93;;
55330;SDS011;58851;42.984;20.336;2023-01-13T10:11:45;96.18;;;60.22;;
55330;SDS011;58851;42.984;20.336;2023-01-13T10:14:40;79.18;;;47.75;;
55330;SDS011;58851;42.984;20.336;2023-01-13T10:25:16;83.45;;;51.95;;
55330;SDS011;58851;42.984;20.336;2023-01-13T10:28:01;49.85;;;31.17;;
55330;SDS011;58851;42.984;20.336;2023-01-13T10:30:34;53.00;;;35.42;;
55330;SDS011;58851;42.984;20.336;2023-01-13T10:33:11;55.92;;;35.05;;
55330;SDS011;58851;42.984;20.336;2023-01-13T10:43:42;39.28;;;28.38;;
55330;SDS011;58851;42.984;20.336;2023-01-13T10:46:28;33.65;;;24.38;;
55330;SDS011;58851;42.984;20.336;2023-01-13T10:48:59;32.97;;;22.42;;
55330;SDS011;58851;42.984;20.336;2023-01-13T10:51:28;32.80;;;22.92;;
55330;SDS011;58851;42.984;20.336;2023-01-13T10:54:18;28.50;;;19.92;;
55330;SDS011;58851;42.984;20.336;2023-01-13T10:56:46;23.48;;;15.40;;
55330;SDS011;58851;42.984;20.336;2023-01-13T10:59:23;59.53;;;36.65;;
55330;SDS011;58851;42.984;20.336;2023-01-13T11:01:57;32.15;;;21.80;;
55330;SDS011;58851;42.984;20.336;2023-01-13T11:04:26;19.88;;;12.73;;
55330;SDS011;58851;42.984;20.336;2023-01-13T11:12:52;38.88;;;23.42;;
55330;SDS011;58851;42.984;20.336;2023-01-13T11:15:22;16.17;;;11.20;;
55330;SDS011;58851;42.984;20.336;2023-01-13T11:18:00;37.05;;;22.50;;
55330;SDS011;58851;42.984;20.336;2023-01-13T11:20:46;25.48;;;13.93;;
55330;SDS011;58851;42.984;20.336;2023-01-13T11:23:28;16.30;;;11.27;;
55330;SDS011;58851;42.984;20.336;2023-01-13T11:26:12;16.80;;;12.25;;
55330;SDS011;58851;42.984;20.336;2023-01-13T11:28:48;16.70;;;12.32;;
55330;SDS011;58851;42.984;20.336;2023-01-13T11:31:31;14.85;;;9.55;;
55330;SDS011;58851;42.984;20.336;2023-01-13T11:34:13;11.93;;;8.65;;
55330;SDS011;58851;42.984;20.336;2023-01-13T11:37:00;19.67;;;13.15;;
55330;SDS011;58851;42.984;20.336;2023-01-13T11:45:02;29.58;;;17.23;;
55330;SDS011;58851;42.984;20.336;2023-01-13T11:47:34;12.85;;;9.32;;
55330;SDS011;58851;42.984;20.336;2023-01-13T11:50:01;13.18;;;9.02;;
55330;SDS011;58851;42.984;20.336;2023-01-13T12:07:18;10.95;;;7.68;;
55330;SDS011;58851;42.984;20.336;2023-01-13T12:10:05;29.35;;;18.52;;
55330;SDS011;58851;42.984;20.336;2023-01-13T12:18:02;13.85;;;8.30;;
55330;SDS011;58851;42.984;20.336;2023-01-13T12:22:54;10.15;;;6.60;;
55330;SDS011;58851;42.984;20.336;2023-01-13T12:25:34;14.05;;;10.02;;
55330;SDS011;58851;42.984;20.336;2023-01-13T12:28:06;22.80;;;16.00;;
55330;SDS011;58851;42.984;20.336;2023-01-13T12:47:36;17.60;;;10.98;;
55330;SDS011;58851;42.984;20.336;2023-01-13T12:52:52;14.70;;;8.57;;
55330;SDS011;58851;42.984;20.336;2023-01-13T12:55:23;16.08;;;10.13;;
55330;SDS011;58851;42.984;20.336;2023-01-13T13:11:48;69.22;;;36.13;;
55330;SDS011;58851;42.984;20.336;2023-01-13T13:17:03;72.47;;;35.25;;
55330;SDS011;58851;42.984;20.336;2023-01-13T13:19:49;10.60;;;7.90;;
55330;SDS011;58851;42.984;20.336;2023-01-13T13:22:17;54.97;;;36.85;;
55330;SDS011;58851;42.984;20.336;2023-01-13T13:35:43;33.83;;;21.03;;
55330;SDS011;58851;42.984;20.336;2023-01-13T13:41:20;37.47;;;21.52;;
55330;SDS011;58851;42.984;20.336;2023-01-13T13:44:16;14.10;;;8.50;;
55330;SDS011;58851;42.984;20.336;2023-01-13T13:47:05;18.08;;;12.63;;
55330;SDS011;58851;42.984;20.336;2023-01-13T13:54:43;19.10;;;13.13;;
55330;SDS011;58851;42.984;20.336;2023-01-13T13:57:14;19.45;;;13.93;;
55330;SDS011;58851;42.984;20.336;2023-01-13T13:59:47;23.08;;;15.00;;
55330;SDS011;58851;42.984;20.336;2023-01-13T14:02:21;25.88;;;16.75;;
55330;SDS011;58851;42.984;20.336;2023-01-13T14:05:04;30.30;;;21.08;;
55330;SDS011;58851;42.984;20.336;2023-01-13T14:07:40;35.58;;;24.65;;
55330;SDS011;58851;42.984;20.336;2023-01-13T14:12:48;21.10;;;11.40;;
55330;SDS011;58851;42.984;20.336;2023-01-13T14:15:48;20.08;;;11.57;;
55330;SDS011;58851;42.984;20.336;2023-01-13T14:18:12;23.20;;;12.98;;
55330;SDS011;58851;42.984;20.336;2023-01-13T14:20:40;23.00;;;11.48;;
55330;SDS011;58851;42.984;20.336;2023-01-13T14:23:06;52.33;;;25.05;;
55330;SDS011;58851;42.984;20.336;2023-01-13T14:25:44;40.53;;;23.63;;
55330;SDS011;58851;42.984;20.336;2023-01-13T14:30:37;27.25;;;16.48;;
55330;SDS011;58851;42.984;20.336;2023-01-13T14:33:04;70.30;;;40.53;;
55330;SDS011;58851;42.984;20.336;2023-01-13T14:35:30;108.05;;;70.07;;
55330;SDS011;58851;42.984;20.336;2023-01-13T14:38:02;54.10;;;30.77;;
55330;SDS011;58851;42.984;20.336;2023-01-13T14:43:03;79.03;;;48.35;;
55330;SDS011;58851;42.984;20.336;2023-01-13T14:45:42;48.60;;;33.83;;
55330;SDS011;58851;42.984;20.336;2023-01-13T14:48:24;43.03;;;29.50;;
55330;SDS011;58851;42.984;20.336;2023-01-13T14:50:58;54.15;;;37.35;;
55330;SDS011;58851;42.984;20.336;2023-01-13T14:53:37;85.55;;;47.90;;
55330;SDS011;58851;42.984;20.336;2023-01-13T15:02:01;58.75;;;37.55;;
55330;SDS011;58851;42.984;20.336;2023-01-13T15:04:47;75.47;;;44.67;;
55330;SDS011;58851;42.984;20.336;2023-01-13T15:07:16;70.80;;;42.63;;
55330;SDS011;58851;42.984;20.336;2023-01-13T15:09:51;100.68;;;63.50;;
55330;SDS011;58851;42.984;20.336;2023-01-13T15:12:23;145.63;;;80.90;;
55330;SDS011;58851;42.984;20.336;2023-01-13T15:14:53;78.25;;;53.70;;
55330;SDS011;58851;42.984;20.336;2023-01-13T15:17:19;67.03;;;45.50;;
55330;SDS011;58851;42.984;20.336;2023-01-13T15:19:44;89.15;;;52.45;;
55330;SDS011;58851;42.984;20.336;2023-01-13T15:22:10;119.05;;;68.15;;
55330;SDS011;58851;42.984;20.336;2023-01-13T15:24:36;127.40;;;75.97;;
55330;SDS011;58851;42.984;20.336;2023-01-13T15:27:01;118.93;;;74.40;;
55330;SDS011;58851;42.984;20.336;2023-01-13T15:29:35;130.93;;;75.27;;
55330;SDS011;58851;42.984;20.336;2023-01-13T15:32:01;146.10;;;83.43;;
55330;SDS011;58851;42.984;20.336;2023-01-13T15:34:27;134.07;;;82.68;;
55330;SDS011;58851;42.984;20.336;2023-01-13T15:36:52;129.32;;;77.30;;
55330;SDS011;58851;42.984;20.336;2023-01-13T15:39:18;114.40;;;68.70;;
55330;SDS011;58851;42.984;20.336;2023-01-13T15:41:44;95.82;;;57.00;;
55330;SDS011;58851;42.984;20.336;2023-01-13T15:44:28;77.95;;;53.85;;
55330;SDS011;58851;42.984;20.336;2023-01-13T15:47:12;145.77;;;91.43;;
55330;SDS011;58851;42.984;20.336;2023-01-13T15:49:44;136.32;;;91.00;;
55330;SDS011;58851;42.984;20.336;2023-01-13T15:52:18;122.82;;;78.07;;
55330;SDS011;58851;42.984;20.336;2023-01-13T15:54:45;78.15;;;53.60;;
55330;SDS011;58851;42.984;20.336;2023-01-13T15:57:22;115.10;;;75.65;;
55330;SDS011;58851;42.984;20.336;2023-01-13T15:59:54;125.28;;;83.70;;
55330;SDS011;58851;42.984;20.336;2023-01-13T16:02:25;145.52;;;90.18;;
55330;SDS011;58851;42.984;20.336;2023-01-13T16:04:51;228.65;;;138.85;;
55330;SDS011;58851;42.984;20.336;2023-01-13T16:07:19;215.07;;;133.98;;
55330;SDS011;58851;42.984;20.336;2023-01-13T16:09:46;176.00;;;114.75;;
55330;SDS011;58851;42.984;20.336;2023-01-13T16:12:11;183.32;;;112.20;;
55330;SDS011;58851;42.984;20.336;2023-01-13T16:14:38;169.23;;;113.10;;
55330;SDS011;58851;42.984;20.336;2023-01-13T16:19:43;171.95;;;114.97;;
55330;SDS011;58851;42.984;20.336;2023-01-13T16:22:10;188.02;;;121.05;;
55330;SDS011;58851;42.984;20.336;2023-01-13T16:24:37;174.48;;;111.88;;
55330;SDS011;58851;42.984;20.336;2023-01-13T16:27:36;187.80;;;116.53;;
55330;SDS011;58851;42.984;20.336;2023-01-13T16:29:55;198.07;;;126.57;;
55330;SDS011;58851;42.984;20.336;2023-01-13T16:32:21;220.10;;;147.13;;
55330;SDS011;58851;42.984;20.336;2023-01-13T16:34:47;201.55;;;133.93;;
55330;SDS011;58851;42.984;20.336;2023-01-13T16:39:46;190.25;;;126.85;;
55330;SDS011;58851;42.984;20.336;2023-01-13T16:42:12;135.15;;;90.53;;
55330;SDS011;58851;42.984;20.336;2023-01-13T16:44:38;114.78;;;77.20;;
55330;SDS011;58851;42.984;20.336;2023-01-13T16:47:05;117.40;;;83.25;;
55330;SDS011;58851;42.984;20.336;2023-01-13T16:49:36;127.30;;;86.18;;
55330;SDS011;58851;42.984;20.336;2023-01-13T16:52:02;121.22;;;80.80;;
55330;SDS011;58851;42.984;20.336;2023-01-13T16:54:27;126.68;;;87.38;;
55330;SDS011;58851;42.984;20.336;2023-01-13T16:56:53;129.27;;;94.40;;
55330;SDS011;58851;42.984;20.336;2023-01-13T16:59:19;134.68;;;93.78;;
55330;SDS011;58851;42.984;20.336;2023-01-13T17:01:45;205.32;;;120.18;;
55330;SDS011;58851;42.984;20.336;2023-01-13T17:04:15;134.35;;;85.80;;
55330;SDS011;58851;42.984;20.336;2023-01-13T17:06:44;133.38;;;84.97;;
55330;SDS011;58851;42.984;20.336;2023-01-13T17:09:21;176.63;;;107.60;;
55330;SDS011;58851;42.984;20.336;2023-01-13T17:11:48;216.40;;;121.75;;
55330;SDS011;58851;42.984;20.336;2023-01-13T17:14:15;253.50;;;141.55;;
55330;SDS011;58851;42.984;20.336;2023-01-13T17:16:42;257.73;;;148.55;;
55330;SDS011;58851;42.984;20.336;2023-01-13T17:19:08;173.68;;;108.00;;
55330;SDS011;58851;42.984;20.336;2023-01-13T17:21:35;183.95;;;116.65;;
55330;SDS011;58851;42.984;20.336;2023-01-13T17:24:01;322.63;;;194.30;;